Time;durP1;ratioP1;P1;durP2;ratioP2;P2;SDS_P1;SDS_P2;PMS_P1;PMS_P2;Temp;Humidity;BMP_temperature;BMP_pressure;BME280_temperature;BME280_humidity;BME280_pressure;Samples;Min_cycle;Max_cycle;Signal;HPM_P1;HPM_P2
2020/12/30 00:00:47;;;;;;;2.67;0.77;;;;;;;12.64;45.61;100246.84;5034593;28;20034;-45
2020/12/30 00:03:12;;;;;;;6.20;1.10;;;;;;;12.62;46.35;100251.69;5034733;28;20059;-46
2020/12/30 00:05:38;;;;;;;3.95;0.73;;;;;;;12.68;46.37;100254.13;5034342;28;20060;-43
2020/12/30 00:08:05;;;;;;;1.75;0.73;;;;;;;12.71;46.70;100252.78;5034339;28;20384;-45
2020/12/30 00:10:31;;;;;;;4.13;0.90;;;;;;;12.60;46.57;100251.94;5034493;28;20053;-44
2020/12/30 00:12:56;;;;;;;6.72;2.03;;;;;;;12.64;45.80;100258.41;5034494;28;20383;-43
2020/12/30 00:15:21;;;;;;;1.65;0.60;;;;;;;12.53;48.32;100254.06;5034362;28;20487;-44
2020/12/30 00:17:47;;;;;;;2.70;1.05;;;;;;;12.56;46.28;100264.31;5034429;28;20108;-45
2020/12/30 00:20:16;;;;;;;3.40;1.00;;;;;;;12.49;46.47;100258.38;5034042;28;20100;-43
2020/12/30 00:22:42;;;;;;;1.15;0.43;;;;;;;12.52;46.60;100255.16;5033577;28;20022;-45
2020/12/30 00:25:08;;;;;;;2.90;0.82;;;;;;;12.51;45.95;100248.16;5034286;28;20025;-44
2020/12/30 00:27:34;;;;;;;3.95;1.17;;;;;;;12.67;46.30;100252.53;5034426;28;20222;-47
2020/12/30 00:30:00;;;;;;;0.77;0.40;;;;;;;12.66;47.82;100245.50;5033408;28;20037;-44
2020/12/30 00:32:26;;;;;;;4.70;1.23;;;;;;;12.77;46.35;100249.03;5033940;28;20115;-44
2020/12/30 00:34:51;;;;;;;1.73;0.77;;;;;;;12.81;46.82;100246.63;5032647;28;20058;-47
2020/12/30 00:37:17;;;;;;;4.22;0.95;;;;;;;12.80;46.79;100250.41;5034550;28;20038;-46
2020/12/30 00:39:42;;;;;;;1.98;0.68;;;;;;;12.84;46.82;100248.78;5034003;28;20112;-45
2020/12/30 00:42:07;;;;;;;10.10;1.20;;;;;;;12.64;47.32;100253.03;5034200;28;20030;-47
2020/12/30 00:44:33;;;;;;;0.40;0.20;;;;;;;12.72;47.12;100262.47;5033664;28;20044;-44
2020/12/30 00:46:59;;;;;;;4.53;1.35;;;;;;;12.62;47.49;100270.50;5034131;28;20052;-48
2020/12/30 00:49:25;;;;;;;1.00;0.43;;;;;;;12.59;46.39;100263.78;5033685;28;20041;-47
2020/12/30 00:51:52;;;;;;;6.03;1.17;;;;;;;12.54;47.56;100271.03;5031939;28;20041;-44
2020/12/30 00:54:18;;;;;;;1.48;0.65;;;;;;;12.47;47.18;100280.13;5033467;28;20037;-44
2020/12/30 00:56:43;;;;;;;2.00;0.52;;;;;;;12.61;46.48;100282.34;5033718;28;20037;-44
2020/12/30 00:59:09;;;;;;;2.88;0.90;;;;;;;12.54;47.01;100279.09;5033208;28;20033;-43
2020/12/30 01:01:34;;;;;;;10.35;8.00;;;;;;;12.58;46.01;100277.50;5033972;28;20099;-45
2020/12/30 01:04:00;;;;;;;4.22;2.88;;;;;;;12.66;45.88;100275.09;5033308;28;20033;-45
2020/12/30 01:06:27;;;;;;;5.93;2.72;;;;;;;12.79;45.95;100281.84;5033535;28;20408;-43
2020/12/30 01:08:53;;;;;;;3.35;1.30;;;;;;;12.68;46.42;100288.28;5033192;28;20144;-43
2020/12/30 01:11:29;;;;;;;2.72;1.05;;;;;;;12.60;47.08;100291.47;5033820;28;20097;-46
2020/12/30 01:13:56;;;;;;;1.63;0.80;;;;;;;12.46;48.16;100291.97;5032956;28;20053;-45
2020/12/30 01:16:21;;;;;;;2.33;0.82;;;;;;;12.49;46.08;100294.13;5032353;28;20124;-47
2020/12/30 01:18:48;;;;;;;2.47;0.68;;;;;;;12.51;45.67;100291.19;5033136;28;20120;-44
2020/12/30 01:21:14;;;;;;;3.67;0.68;;;;;;;12.61;46.07;100293.91;5033204;28;20111;-48
2020/12/30 01:23:39;;;;;;;3.30;1.13;;;;;;;12.38;46.59;100297.84;5033087;28;20041;-49
2020/12/30 01:26:05;;;;;;;11.50;1.00;;;;;;;12.44;47.29;100304.84;5033490;28;20061;-48
2020/12/30 01:28:30;;;;;;;2.17;1.05;;;;;;;12.39;45.45;100293.28;5033099;28;20052;-49
2020/12/30 01:30:56;;;;;;;1.73;0.30;;;;;;;12.53;45.84;100296.28;5033018;28;20064;-46
2020/12/30 01:33:21;;;;;;;2.53;1.05;;;;;;;12.57;45.93;100308.97;5032454;28;20388;-48
2020/12/30 01:35:47;;;;;;;2.05;1.02;;;;;;;12.66;45.56;100303.88;5032702;28;20053;-47
2020/12/30 01:38:13;;;;;;;0.45;0.20;;;;;;;12.57;45.04;100314.34;5032972;28;20034;-46
2020/12/30 01:40:39;;;;;;;1.67;0.40;;;;;;;12.45;46.18;100317.25;5032763;28;20064;-45
2020/12/30 01:43:04;;;;;;;1.10;0.65;;;;;;;12.65;45.29;100319.19;5032778;28;20026;-46
2020/12/30 01:45:30;;;;;;;8.05;1.40;;;;;;;12.53;46.93;100317.81;5032542;28;20472;-46
2020/12/30 01:47:55;;;;;;;2.75;0.75;;;;;;;12.48;47.04;100322.09;5024791;28;20022;-50
2020/12/30 01:50:21;;;;;;;4.38;1.30;;;;;;;12.59;45.73;100317.56;5032467;28;20124;-50
2020/12/30 01:52:46;;;;;;;4.40;1.20;;;;;;;12.61;45.14;100326.19;5032629;28;20033;-45
2020/12/30 01:55:12;;;;;;;4.90;1.15;;;;;;;12.47;45.19;100335.81;5032223;28;20464;-45
2020/12/30 01:57:38;;;;;;;1.48;0.68;;;;;;;12.33;48.25;100348.09;5032199;28;20133;-48
2020/12/30 02:00:09;;;;;;;5.00;0.68;;;;;;;12.29;46.23;100339.75;5032001;28;20040;-44
2020/12/30 02:02:37;;;;;;;5.65;0.60;;;;;;;12.22;49.57;100336.47;5031794;28;20072;-46
2020/12/30 02:05:07;;;;;;;5.55;1.35;;;;;;;12.37;46.79;100355.38;5032317;28;20066;-44
2020/12/30 02:07:33;;;;;;;7.38;2.20;;;;;;;12.52;47.01;100356.50;5032104;28;20104;-46
2020/12/30 02:10:02;;;;;;;0.35;0.15;;;;;;;12.32;45.83;100343.78;5032136;28;20098;-43
2020/12/30 02:12:28;;;;;;;0.80;0.47;;;;;;;12.17;44.85;100360.63;5031204;28;20037;-45
2020/12/30 02:14:53;;;;;;;2.38;0.82;;;;;;;12.18;47.28;100368.41;5032114;28;20151;-45
2020/12/30 02:17:19;;;;;;;3.20;1.08;;;;;;;12.33;44.92;100373.09;5032026;28;20048;-46
2020/12/30 02:19:47;;;;;;;1.75;0.60;;;;;;;12.37;46.29;100378.75;5031065;28;20033;-44
2020/12/30 02:22:17;;;;;;;2.13;1.05;;;;;;;12.43;45.64;100385.78;5031703;28;20045;-44
2020/12/30 02:24:45;;;;;;;1.45;0.70;;;;;;;12.38;45.52;100383.88;5032074;28;20037;-43
2020/12/30 02:27:10;;;;;;;3.10;0.85;;;;;;;12.31;45.38;100394.06;5030705;28;20087;-44
2020/12/30 02:29:36;;;;;;;0.50;0.43;;;;;;;12.22;48.14;100391.03;5031934;28;20033;-43
2020/12/30 02:32:01;;;;;;;6.20;1.23;;;;;;;12.20;47.12;100377.06;5031508;28;20442;-45
2020/12/30 02:34:27;;;;;;;3.13;1.35;;;;;;;12.09;48.28;100370.78;5016264;28;20461;-44
2020/12/30 02:36:53;;;;;;;5.72;0.75;;;;;;;12.20;48.34;100370.84;5030127;28;20443;-43
2020/12/30 02:39:19;;;;;;;2.65;0.65;;;;;;;12.30;45.93;100387.84;5031775;28;20100;-45
2020/12/30 02:41:46;;;;;;;0.93;0.57;;;;;;;12.24;47.34;100377.34;5014110;28;20116;-44
2020/12/30 02:44:11;;;;;;;3.05;1.20;;;;;;;12.35;46.44;100373.66;5012974;28;20108;-45
2020/12/30 02:46:37;;;;;;;4.00;0.90;;;;;;;12.37;47.94;100379.56;5021804;28;20470;-46
2020/12/30 02:49:03;;;;;;;1.63;0.60;;;;;;;12.51;46.82;100373.72;5019637;28;20509;-45
2020/12/30 02:51:28;;;;;;;2.75;0.65;;;;;;;12.38;46.73;100370.44;5027274;28;20037;-45
2020/12/30 02:53:54;;;;;;;6.43;1.52;;;;;;;12.46;46.86;100371.81;5031270;28;20030;-44
2020/12/30 02:56:20;;;;;;;1.50;0.43;;;;;;;12.22;49.11;100371.41;5031618;28;20045;-44
2020/12/30 02:58:46;;;;;;;4.53;0.70;;;;;;;12.32;46.13;100376.03;5031290;28;20425;-45
2020/12/30 03:01:16;;;;;;;0.80;0.50;;;;;;;12.22;44.83;100392.91;5023333;28;20037;-44
2020/12/30 03:03:42;;;;;;;4.20;1.15;;;;;;;12.00;47.27;100385.78;5031544;28;20036;-44
2020/12/30 03:06:08;;;;;;;1.63;0.98;;;;;;;12.07;45.30;100372.91;5031257;28;20042;-44
2020/12/30 03:08:34;;;;;;;2.47;0.60;;;;;;;12.26;44.83;100392.13;5031181;28;20384;-44
2020/12/30 03:11:00;;;;;;;4.35;0.60;;;;;;;12.41;44.53;100393.28;5031407;28;20037;-43
2020/12/30 03:13:26;;;;;;;2.00;1.42;;;;;;;12.20;44.74;100403.09;5031271;28;20444;-44
2020/12/30 03:15:52;;;;;;;1.15;0.47;;;;;;;12.19;43.69;100396.94;5034186;28;20056;-43
2020/12/30 03:18:17;;;;;;;1.08;0.40;;;;;;;12.19;43.03;100401.50;5035638;28;20025;-45
2020/12/30 03:20:43;;;;;;;4.18;0.93;;;;;;;12.18;45.00;100395.28;5034950;28;20043;-45
2020/12/30 03:23:08;;;;;;;2.78;0.63;;;;;;;12.35;43.63;100389.78;5035195;28;20471;-43
2020/12/30 03:25:34;;;;;;;1.70;0.22;;;;;;;12.28;45.58;100394.56;5034999;28;20045;-46
2020/12/30 03:28:01;;;;;;;0.15;0.05;;;;;;;12.26;46.29;100385.97;5035568;28;20041;-46
2020/12/30 03:30:27;;;;;;;0.05;0.05;;;;;;;12.35;45.50;100399.72;5035314;28;20041;-43
2020/12/30 03:32:52;;;;;;;0.40;0.40;;;;;;;12.35;44.52;100392.47;5050188;28;20456;-43
2020/12/30 03:35:18;;;;;;;4.10;0.90;;;;;;;12.37;43.87;100398.38;5035061;28;20230;-44
2020/12/30 03:37:44;;;;;;;2.50;1.02;;;;;;;12.36;43.39;100410.22;5035036;28;20068;-44
2020/12/30 03:40:10;;;;;;;9.00;0.47;;;;;;;12.16;45.99;100388.56;5035070;28;20112;-44
2020/12/30 03:42:35;;;;;;;2.17;0.90;;;;;;;12.25;44.30;100395.91;5033497;28;20532;-44
2020/12/30 03:45:01;;;;;;;1.55;0.57;;;;;;;12.31;44.31;100386.00;5035088;28;20037;-45
2020/12/30 03:47:30;;;;;;;0.50;0.38;;;;;;;12.36;45.82;100402.16;5034980;28;20065;-44
2020/12/30 03:49:58;;;;;;;1.67;0.77;;;;;;;12.14;44.32;100396.88;5034854;28;20117;-45
2020/12/30 03:52:24;;;;;;;7.68;1.35;;;;;;;12.15;45.14;100398.53;5035121;28;20029;-43
2020/12/30 03:54:49;;;;;;;3.70;0.73;;;;;;;12.24;46.45;100404.22;5034488;28;20810;-45
2020/12/30 03:57:15;;;;;;;0.98;0.32;;;;;;;12.30;45.60;100403.97;5033769;28;20042;-43
2020/12/30 03:59:40;;;;;;;1.08;0.22;;;;;;;12.34;46.61;100398.94;5029571;28;20036;-43
2020/12/30 04:02:06;;;;;;;1.55;0.85;;;;;;;12.12;44.77;100390.97;5029544;28;20522;-43
2020/12/30 04:04:31;;;;;;;5.18;0.82;;;;;;;12.07;46.08;100405.16;5034773;28;20392;-46
2020/12/30 04:06:57;;;;;;;2.75;0.80;;;;;;;12.08;45.30;100422.94;5022904;28;20689;-44
2020/12/30 04:09:22;;;;;;;2.10;0.55;;;;;;;12.15;48.69;100406.59;5030509;28;20036;-49
2020/12/30 04:11:47;;;;;;;2.67;1.05;;;;;;;12.24;44.74;100398.84;5034074;28;20041;-49
2020/12/30 04:14:13;;;;;;;0.60;0.38;;;;;;;12.15;48.44;100406.59;5034467;28;20061;-45
2020/12/30 04:16:38;;;;;;;0.98;0.47;;;;;;;12.11;44.55;100421.59;5034641;28;20045;-46
2020/12/30 04:19:04;;;;;;;1.23;0.65;;;;;;;12.19;46.82;100406.88;5034421;28;20094;-49
2020/12/30 04:21:29;;;;;;;1.10;0.40;;;;;;;12.13;43.64;100411.38;5033947;28;20053;-44
2020/12/30 04:23:55;;;;;;;0.10;0.10;;;;;;;12.06;46.25;100421.53;5033156;28;20467;-44
2020/12/30 04:26:21;;;;;;;2.92;0.43;;;;;;;12.02;47.22;100437.38;5031063;28;20459;-43
2020/12/30 04:28:48;;;;;;;0.10;0.10;;;;;;;12.02;48.96;100453.50;5022988;28;20032;-47
2020/12/30 04:31:15;;;;;;;10.00;1.23;;;;;;;12.13;44.78;100434.78;5033312;28;20112;-43
2020/12/30 04:33:41;;;;;;;2.15;1.20;;;;;;;12.33;44.13;100453.75;5033952;28;20029;-45
2020/12/30 04:36:07;;;;;;;3.35;0.47;;;;;;;12.22;45.90;100450.19;5033646;28;20056;-43
2020/12/30 04:38:34;;;;;;;3.08;0.88;;;;;;;12.18;45.11;100453.63;5034190;28;20036;-43
2020/12/30 04:41:04;;;;;;;1.13;0.43;;;;;;;12.22;44.91;100442.13;5031861;28;20056;-43
2020/12/30 04:43:33;;;;;;;4.72;0.60;;;;;;;12.08;44.32;100452.47;5033822;28;20301;-43
2020/12/30 04:45:59;;;;;;;1.63;0.95;;;;;;;12.12;45.06;100465.41;5031504;28;20450;-43
2020/12/30 04:48:26;;;;;;;3.92;0.77;;;;;;;12.16;45.79;100461.94;5033619;28;20037;-44
2020/12/30 04:50:52;;;;;;;0.73;0.17;;;;;;;12.07;49.06;100460.78;5033532;28;20083;-45
2020/12/30 04:53:21;;;;;;;1.80;0.75;;;;;;;12.12;45.66;100471.59;5033971;28;20026;-43
2020/12/30 04:55:49;;;;;;;2.30;0.80;;;;;;;11.98;45.28;100455.09;5033637;28;20410;-43
2020/12/30 04:58:17;;;;;;;0.80;0.40;;;;;;;12.07;45.38;100461.59;5033710;28;20357;-45
2020/12/30 05:00:44;;;;;;;4.72;1.23;;;;;;;12.03;46.97;100451.63;5033202;28;20480;-44
2020/12/30 05:03:10;;;;;;;1.55;0.57;;;;;;;11.90;50.26;100453.69;5033622;28;20136;-44
2020/12/30 05:05:40;;;;;;;0.10;0.10;;;;;;;11.93;47.19;100463.09;5033488;28;20045;-43
2020/12/30 05:08:11;;;;;;;2.70;0.95;;;;;;;11.99;46.14;100462.09;5033209;28;20411;-44
2020/12/30 05:10:46;;;;;;;3.97;1.30;;;;;;;11.93;46.63;100462.28;5033380;28;20077;-45
2020/12/30 05:13:12;;;;;;;3.40;0.98;;;;;;;12.02;45.98;100458.88;5032674;28;20041;-46
2020/12/30 05:15:38;;;;;;;1.75;1.05;;;;;;;12.06;46.23;100462.69;5031004;28;20043;-45
2020/12/30 05:18:06;;;;;;;1.55;0.55;;;;;;;12.08;48.25;100460.53;5021350;28;20033;-44
2020/12/30 05:20:37;;;;;;;1.95;0.65;;;;;;;12.07;45.51;100452.75;5014895;28;20049;-48
2020/12/30 05:23:07;;;;;;;0.88;0.28;;;;;;;11.98;47.61;100456.97;5027395;28;20064;-45
2020/12/30 05:25:43;;;;;;;2.90;0.85;;;;;;;11.96;46.98;100462.59;5033042;28;20480;-45
2020/12/30 05:28:11;;;;;;;2.85;1.10;;;;;;;11.99;46.15;100451.34;5032998;28;20033;-43
2020/12/30 05:30:37;;;;;;;3.30;1.00;;;;;;;11.99;47.33;100453.19;5032410;28;20492;-44
2020/12/30 05:33:03;;;;;;;2.40;0.38;;;;;;;11.97;47.12;100458.81;5014107;28;20064;-46
2020/12/30 05:35:30;;;;;;;9.02;1.55;;;;;;;11.87;47.71;100456.84;5014032;28;20544;-44
2020/12/30 05:37:55;;;;;;;9.48;0.35;;;;;;;12.08;47.11;100457.06;5013233;28;20530;-44
2020/12/30 05:40:29;;;;;;;5.55;1.35;;;;;;;12.09;46.77;100454.09;5013990;28;20145;-43
2020/12/30 05:43:08;;;;;;;17.08;1.20;;;;;;;12.22;47.08;100452.88;5032646;28;20079;-44
2020/12/30 05:45:44;;;;;;;1.52;0.65;;;;;;;12.17;47.19;100455.50;5032755;28;20080;-45
2020/12/30 05:48:10;;;;;;;3.00;0.80;;;;;;;12.17;47.13;100463.56;5032394;28;20025;-43
2020/12/30 05:51:06;;;;;;;0.82;0.47;;;;;;;12.05;47.60;100454.88;5032525;28;20037;-43
2020/12/30 05:53:31;;;;;;;3.30;1.25;;;;;;;12.25;47.48;100463.09;5031804;28;20077;-45
2020/12/30 05:56:10;;;;;;;11.85;1.23;;;;;;;12.23;45.74;100459.03;5032777;28;20126;-43
2020/12/30 05:58:42;;;;;;;4.53;1.20;;;;;;;12.16;46.96;100453.88;5032227;28;20037;-43
2020/12/30 06:01:24;;;;;;;0.93;0.40;;;;;;;12.17;48.65;100462.78;5032165;28;20512;-43
2020/12/30 06:03:49;;;;;;;;;;;;;;;12.22;45.73;100462.78;5032572;28;20041;-43
2020/12/30 06:06:20;;;;;;;12.77;0.63;;;;;;;12.25;45.79;100459.59;5032529;28;19971;-44
2020/12/30 06:08:47;;;;;;;1.17;0.40;;;;;;;12.25;45.10;100454.22;5032439;28;20030;-42
2020/12/30 06:11:15;;;;;;;0.38;0.30;;;;;;;12.22;46.27;100454.72;5032169;28;20053;-43
2020/12/30 06:13:43;;;;;;;1.23;0.60;;;;;;;12.14;46.98;100458.69;5031928;28;20491;-43
2020/12/30 06:16:14;;;;;;;2.95;0.30;;;;;;;12.22;48.63;100460.09;5032111;28;20034;-44
2020/12/30 06:18:40;;;;;;;2.92;0.80;;;;;;;12.39;46.40;100462.66;5031843;28;20080;-47
2020/12/30 06:21:08;;;;;;;1.73;0.50;;;;;;;12.38;46.64;100477.97;5032043;28;20072;-46
2020/12/30 06:23:34;;;;;;;2.65;0.50;;;;;;;12.23;49.01;100494.00;5031322;28;20037;-47
2020/12/30 06:26:06;;;;;;;5.90;1.52;;;;;;;12.32;48.06;100497.00;5032137;28;20279;-46
2020/12/30 06:28:32;;;;;;;2.88;1.10;;;;;;;12.29;47.87;100509.09;5030881;28;20037;-44
2020/12/30 06:31:02;;;;;;;1.65;0.75;;;;;;;12.19;48.17;100514.38;5031864;28;20487;-47
2020/12/30 06:33:27;;;;;;;1.40;0.82;;;;;;;12.06;48.35;100521.81;5031739;28;20099;-44
2020/12/30 06:35:54;;;;;;;0.47;0.28;;;;;;;12.27;47.33;100541.63;5030559;28;20456;-48
2020/12/30 06:38:25;;;;;;;4.82;1.10;;;;;;;12.32;46.64;100550.78;5032170;28;20041;-45
2020/12/30 06:41:01;;;;;;;2.78;1.45;;;;;;;12.04;44.49;100556.19;5031540;28;20041;-46
2020/12/30 06:43:39;;;;;;;2.85;0.60;;;;;;;12.09;44.22;100575.03;5031686;28;20498;-43
2020/12/30 06:46:09;;;;;;;3.28;0.60;;;;;;;12.15;45.48;100588.50;5029576;28;20045;-45
2020/12/30 06:48:52;;;;;;;1.38;0.45;;;;;;;12.19;44.40;100600.41;5031153;28;20029;-43
2020/12/30 06:51:18;;;;;;;2.03;0.50;;;;;;;12.13;45.68;100591.44;5020431;28;20066;-44
2020/12/30 06:53:56;;;;;;;3.65;0.60;;;;;;;12.08;43.67;100589.53;5037360;28;20116;-42
2020/12/30 06:56:41;;;;;;;2.00;1.23;;;;;;;12.34;43.75;100602.41;5024361;28;20065;-43
2020/12/30 06:59:08;;;;;;;5.35;1.38;;;;;;;12.18;43.82;100601.44;5012783;28;20022;-43
2020/12/30 07:01:53;;;;;;;6.03;2.30;;;;;;;12.22;45.27;100600.69;5012799;28;20473;-48
2020/12/30 07:04:19;;;;;;;0.40;0.40;;;;;;;12.18;48.64;100609.50;5012585;28;20036;-43
2020/12/30 07:06:44;;;;;;;0.57;0.30;;;;;;;12.10;45.05;100611.59;5022484;28;20034;-44
2020/12/30 07:09:13;;;;;;;3.90;0.50;;;;;;;12.10;46.69;100616.97;5031274;28;20034;-48
2020/12/30 07:11:45;;;;;;;7.47;1.13;;;;;;;12.09;44.15;100609.16;5031463;28;20037;-45
2020/12/30 07:14:12;;;;;;;2.72;0.57;;;;;;;12.18;44.54;100614.91;5031405;28;20037;-42
2020/12/30 07:16:39;;;;;;;4.57;1.27;;;;;;;12.23;44.13;100613.06;5031478;28;20067;-48
2020/12/30 07:19:22;;;;;;;1.23;0.30;;;;;;;12.37;43.69;100628.81;5031124;28;20056;-44
2020/12/30 07:22:04;;;;;;;2.55;1.00;;;;;;;12.08;46.75;100629.84;5030933;28;20049;-47
2020/12/30 07:24:31;;;;;;;3.67;0.50;;;;;;;12.04;44.97;100647.56;5030961;28;20168;-45
2020/12/30 07:26:59;;;;;;;5.03;1.50;;;;;;;12.16;45.79;100658.16;5023581;28;20499;-42
2020/12/30 07:29:25;;;;;;;1.05;0.68;;;;;;;12.05;47.60;100670.66;5031183;28;20121;-43
2020/12/30 07:31:53;;;;;;;1.77;0.30;;;;;;;12.04;47.15;100669.06;5030898;28;20041;-46
2020/12/30 07:34:21;;;;;;;5.28;1.98;;;;;;;12.19;47.43;100678.34;5030571;28;20030;-43
2020/12/30 07:36:48;;;;;;;6.90;1.13;;;;;;;12.22;46.72;100678.66;5029623;28;20041;-46
2020/12/30 07:39:14;;;;;;;11.20;2.28;;;;;;;12.29;45.79;100687.34;5031254;28;20088;-47
2020/12/30 07:41:45;;;;;;;5.03;2.45;;;;;;;12.35;46.31;100685.50;5031068;28;20126;-45
2020/12/30 07:44:12;;;;;;;2.97;0.57;;;;;;;12.31;47.49;100681.72;5030679;28;20044;-46
2020/12/30 07:46:37;;;;;;;1.02;0.73;;;;;;;12.46;46.53;100687.25;5012839;28;20113;-45
2020/12/30 07:49:10;;;;;;;6.10;1.35;;;;;;;12.21;47.78;100690.47;5010275;28;20165;-42
2020/12/30 07:51:36;;;;;;;6.72;2.08;;;;;;;12.36;46.66;100705.13;5010857;28;20143;-44
2020/12/30 07:54:01;;;;;;;2.65;1.38;;;;;;;12.32;47.03;100696.75;5009889;28;20038;-45
2020/12/30 07:56:27;;;;;;;8.38;2.15;;;;;;;12.36;46.35;100714.03;5010274;28;20045;-45
2020/12/30 07:58:53;;;;;;;5.78;2.05;;;;;;;12.25;45.40;100713.09;5010478;28;20041;-45
2020/12/30 08:01:19;;;;;;;1.25;0.70;;;;;;;12.23;47.59;100725.16;5028494;28;20456;-47
2020/12/30 08:03:45;;;;;;;3.60;1.48;;;;;;;12.20;45.86;100733.72;5016110;28;20029;-43
2020/12/30 08:06:11;;;;;;;3.13;1.38;;;;;;;12.26;45.30;100740.78;5015512;28;20038;-44
2020/12/30 08:08:44;;;;;;;6.13;1.60;;;;;;;12.15;45.28;100736.34;5014632;28;20076;-47
2020/12/30 08:11:10;;;;;;;4.25;1.73;;;;;;;12.23;45.66;100743.97;5015393;28;20494;-44
2020/12/30 08:13:38;;;;;;;2.72;1.08;;;;;;;12.25;46.48;100745.38;5015826;28;20034;-43
2020/12/30 08:16:05;;;;;;;3.40;1.88;;;;;;;12.22;46.14;100750.41;5015532;28;20087;-44
2020/12/30 08:18:30;;;;;;;5.10;1.60;;;;;;;12.39;46.29;100750.34;5024357;28;20029;-45
2020/12/30 08:20:56;;;;;;;4.05;1.38;;;;;;;12.20;47.76;100753.38;5026320;28;20533;-44
2020/12/30 08:23:21;;;;;;;2.83;1.05;;;;;;;12.13;48.79;100765.34;5033968;28;20630;-44
2020/12/30 08:25:50;;;;;;;3.53;0.77;;;;;;;11.97;48.08;100765.13;5034193;28;20030;-45
2020/12/30 08:28:15;;;;;;;6.25;2.97;;;;;;;11.99;48.21;100768.41;5034283;28;20081;-44
2020/12/30 08:30:44;;;;;;;5.40;1.98;;;;;;;12.13;48.50;100779.59;5034268;28;20037;-46
2020/12/30 08:33:11;;;;;;;7.25;2.95;;;;;;;12.08;48.04;100784.94;5034206;28;20033;-44
2020/12/30 08:35:47;;;;;;;8.00;3.40;;;;;;;12.15;47.39;100772.13;5033743;28;20055;-43
2020/12/30 08:38:20;;;;;;;3.47;1.13;;;;;;;11.87;49.29;100775.72;5033927;28;20033;-43
2020/12/30 08:40:50;;;;;;;1.75;0.85;;;;;;;11.96;48.85;100790.41;5033871;28;20045;-47
2020/12/30 08:43:32;;;;;;;7.88;1.58;;;;;;;11.90;49.62;100791.34;5033991;28;20460;-44
2020/12/30 08:46:19;;;;;;;7.70;2.42;;;;;;;11.90;49.38;100797.56;5033368;28;20042;-44
2020/12/30 08:48:49;;;;;;;4.78;1.88;;;;;;;11.95;48.92;100801.38;5033480;28;20032;-48
2020/12/30 08:51:33;;;;;;;5.95;4.25;;;;;;;12.12;48.64;100806.75;5033961;28;20037;-43
2020/12/30 08:53:59;;;;;;;7.97;2.58;;;;;;;12.23;49.23;100805.81;5026151;28;20489;-44
2020/12/30 08:56:25;;;;;;;14.02;4.78;;;;;;;12.11;49.18;100805.91;5033664;28;20037;-43
2020/12/30 08:58:53;;;;;;;6.50;2.10;;;;;;;11.94;50.06;100814.00;5033572;28;20029;-43
2020/12/30 09:01:23;;;;;;;4.32;1.08;;;;;;;12.00;49.77;100820.28;5032956;28;20054;-44
2020/12/30 09:03:48;;;;;;;10.52;1.35;;;;;;;12.10;49.30;100825.81;5033387;28;20030;-44
2020/12/30 09:06:28;;;;;;;5.55;1.63;;;;;;;12.16;48.93;100824.78;5033422;28;20433;-45
2020/12/30 09:08:54;;;;;;;5.55;1.75;;;;;;;12.11;49.51;100838.16;5032940;28;20040;-44
2020/12/30 09:11:19;;;;;;;9.43;1.88;;;;;;;12.30;48.77;100844.06;5033152;28;20033;-44
2020/12/30 09:13:45;;;;;;;2.55;0.73;;;;;;;12.26;50.73;100856.38;5032723;28;20473;-44
2020/12/30 09:16:10;;;;;;;7.22;1.48;;;;;;;12.24;49.12;100855.84;5033207;28;20041;-46
2020/12/30 09:18:36;;;;;;;4.80;2.35;;;;;;;12.33;49.20;100853.53;5033003;28;20388;-44
2020/12/30 09:21:02;;;;;;;4.35;1.35;;;;;;;-146.19;100.00;63747.78;5032814;28;20052;-64
2020/12/30 09:23:28;;;;;;;12.63;2.60;;;;;;;-146.19;100.00;63747.78;5025084;28;20036;-63
2020/12/30 09:25:55;;;;;;;6.03;2.65;;;;;;;-146.19;100.00;63747.78;5028894;28;20120;-63
2020/12/30 09:28:23;;;;;;;6.35;1.60;;;;;;;-146.19;100.00;63747.78;5029318;28;20135;-62
2020/12/30 09:30:52;;;;;;;1.90;1.55;;;;;;;-146.19;100.00;63747.78;5030239;28;20361;-62
2020/12/30 09:33:19;;;;;;;10.98;2.47;;;;;;;-146.19;100.00;63747.78;5030284;28;20021;-63
2020/12/30 09:35:46;;;;;;;9.57;4.50;;;;;;;-146.19;100.00;63747.78;5029730;28;20076;-63
2020/12/30 09:38:21;;;;;;;5.70;2.15;;;;;;;-146.19;100.00;63747.78;5030482;28;20707;-63
2020/12/30 09:40:49;;;;;;;8.57;2.35;;;;;;;-146.19;100.00;63747.78;5029901;28;20030;-63
2020/12/30 09:43:19;;;;;;;7.43;2.85;;;;;;;-146.19;100.00;63747.78;5030409;28;20017;-63
2020/12/30 09:45:46;;;;;;;6.40;2.78;;;;;;;-146.19;100.00;63747.78;5029837;28;20046;-69
2020/12/30 09:48:16;;;;;;;9.38;2.53;;;;;;;-146.19;100.00;63747.78;5030129;28;20041;-63
2020/12/30 09:50:43;;;;;;;8.05;4.63;;;;;;;-146.19;100.00;63747.78;5030601;28;20041;-62
2020/12/30 09:53:09;;;;;;;13.15;4.97;;;;;;;-146.19;100.00;63747.78;5032157;28;20458;-63
2020/12/30 09:55:35;;;;;;;10.23;6.68;;;;;;;-146.19;100.00;63747.78;5032464;28;20041;-63
2020/12/30 09:58:01;;;;;;;8.48;3.80;;;;;;;-146.19;100.00;63747.78;5032166;28;20041;-64
2020/12/30 10:00:26;;;;;;;11.18;4.32;;;;;;;-146.19;100.00;63747.78;5032088;28;20044;-62
2020/12/30 10:02:52;;;;;;;8.38;3.97;;;;;;;-146.19;100.00;63747.78;5032066;28;20033;-62
2020/12/30 10:05:18;;;;;;;9.75;2.55;;;;;;;-146.19;100.00;63747.78;5032230;28;20033;-62
2020/12/30 10:07:43;;;;;;;9.75;2.33;;;;;;;-146.19;100.00;63747.78;5031761;28;20034;-62
2020/12/30 10:10:09;;;;;;;6.45;2.78;;;;;;;-146.19;100.00;63747.78;5032052;28;20527;-62
2020/12/30 10:12:38;;;;;;;6.07;1.48;;;;;;;-146.19;100.00;63747.78;5032111;28;20040;-62
2020/12/30 10:15:05;;;;;;;6.47;2.10;;;;;;;-146.19;100.00;63747.78;5031691;28;20028;-62
2020/12/30 10:17:31;;;;;;;5.13;1.80;;;;;;;-146.19;100.00;63747.78;5030890;28;20120;-63
2020/12/30 10:19:56;;;;;;;11.75;2.22;;;;;;;-146.19;100.00;63747.78;5024157;28;20121;-62
2020/12/30 10:22:21;;;;;;;6.38;3.08;;;;;;;-146.19;100.00;63747.78;5032174;28;20037;-62
2020/12/30 10:24:48;;;;;;;12.63;3.10;;;;;;;-146.19;100.00;63747.78;5031403;28;20107;-59
2020/12/30 10:27:18;;;;;;;31.40;2.50;;;;;;;-146.19;100.00;63747.78;5032268;28;20094;-62
2020/12/30 10:29:44;;;;;;;4.35;2.08;;;;;;;-146.19;100.00;63747.78;5032291;28;20041;-62
2020/12/30 10:32:09;;;;;;;9.35;1.95;;;;;;;-146.19;100.00;63747.78;5032197;28;20033;-60
2020/12/30 10:34:37;;;;;;;14.15;3.10;;;;;;;-146.19;100.00;63747.78;5031601;28;20507;-61
2020/12/30 10:37:04;;;;;;;4.15;2.20;;;;;;;-146.19;100.00;63747.78;5031915;28;20068;-61
2020/12/30 10:39:30;;;;;;;7.78;2.63;;;;;;;-146.19;100.00;63747.78;5031652;28;20041;-61
2020/12/30 10:41:57;;;;;;;10.93;4.15;;;;;;;-146.19;100.00;63747.78;5024247;28;20109;-60
2020/12/30 10:44:24;;;;;;;13.05;2.85;;;;;;;-146.19;100.00;63747.78;5031278;28;20056;-63
2020/12/30 10:46:50;;;;;;;6.78;1.92;;;;;;;-146.19;100.00;63747.78;5031689;28;20113;-62
2020/12/30 10:49:15;;;;;;;7.28;3.50;;;;;;;-146.19;100.00;63747.78;5031728;28;20087;-60
2020/12/30 10:51:48;;;;;;;5.20;3.33;;;;;;;-146.19;100.00;63747.78;5031655;28;20030;-60
2020/12/30 10:54:17;;;;;;;6.45;2.80;;;;;;;-146.19;100.00;63747.78;5031852;28;20132;-60
2020/12/30 10:56:50;;;;;;;6.38;1.95;;;;;;;-146.19;100.00;63747.78;5031579;28;20037;-60
2020/12/30 10:59:16;;;;;;;16.80;2.30;;;;;;;-146.19;100.00;63747.78;5031374;28;20037;-60
2020/12/30 11:01:43;;;;;;;16.15;3.15;;;;;;;-146.19;100.00;63747.78;5031500;28;20029;-60
2020/12/30 11:04:09;;;;;;;3.67;2.72;;;;;;;-146.19;100.00;63747.78;5031826;28;20038;-61
2020/12/30 11:06:34;;;;;;;3.83;2.30;;;;;;;-146.19;100.00;63747.78;5028206;28;20096;-60
2020/12/30 11:09:00;;;;;;;4.28;2.45;;;;;;;-146.19;100.00;63747.78;5031350;28;20029;-61
2020/12/30 11:11:25;;;;;;;11.18;2.08;;;;;;;-146.19;100.00;63747.78;5030446;28;20071;-60
2020/12/30 11:13:51;;;;;;;10.48;2.63;;;;;;;-146.19;100.00;63747.78;5026447;28;20041;-66
2020/12/30 11:16:16;;;;;;;10.77;2.30;;;;;;;-146.19;100.00;63747.78;5023070;28;20037;-64
2020/12/30 11:18:42;;;;;;;17.73;3.67;;;;;;;-146.19;100.00;63747.78;5025488;28;20435;-63
2020/12/30 11:21:08;;;;;;;12.45;4.22;;;;;;;-146.19;100.00;63747.78;5021217;28;20037;-64
2020/12/30 11:23:34;;;;;;;9.52;2.38;;;;;;;-146.19;100.00;63747.78;5027336;28;20045;-65